Pagrindinis puslapis
METAR-TAF:

METAR-TAF

Oro uostai :

Bamakas, Malis

platuma: 12-32N, ilguma: 007-57W, Aukštis: 380 m

Dabartinis oras

Ataskaita buvo paskelbta 29 minutes, ne 06:00 UTC
Vėjas 5 kt iš Šiaurės
Temperatūra 26°C
Drėgmė 23%
Slėgis 1011 hPa
Matomumas: 8000 m

METAR: GABS 180600Z 01005KT 8000 NSC 26/03 Q1011 NOSIG

Laikas: 06:29 (06:29 UTC)

Prognozė

Ataskaita buvo paskelbta 1 valandą ir 29 minutes, ne 05:00 UTC
Prognozė galioja nuo 18 metu 06 UTC su 19 metu 12 UTC
Vėjas 10 kt iš Šiaurės Rytų
Matomumas: 8000 m
Tikimybė 40% :
Laikinai
nuo 18 metu 06 UTC su 18 metu 09 UTC
Matomumas: 4500 m
migla
Tikimybė 40% :
Laikinai
nuo 18 metu 08 UTC su 18 metu 12 UTC
Vėjas 15 kt iš Rytų/Šiaurės Rytų su gūsio iki 25 kt

TAF: GABS 180500Z 1806/1912 04010KT 8000 NSC PROB40 TEMPO 1806/1809 4500 HZ PROB40 TEMPO 1808/1812 06015G25KT

Orai ataskaitas ir orų prognozės (METAR, TAF).

turimą stotys yra geltonos ir raudonos taškus žemėlapyje.

Perkelti pele per norėdami pamatyti stoties vardą.

Tada spustelėkite, norėdami matyti oro stebėjimo ir prognozės.

Norėdami pakeisti žemėlapį: spustelėkite ant žalios mygtukų su juodo kryžiaus žemyn,; žalią mygtuką su brūkšneliu, jei norite nutolinti; arba žalių rodyklių gretimoms žemėlapius.


METAR-TAF: